Angelo B — 5BKP4 — position and weather

sailwx.info

Track history (hours):
 
Tides and Currents Weather Stations Pressure Air Temp Water Temp Dewpoint Dewpoint Depression Visibility Wind Speed Wind Dir Waves Ship Positions

Angelo B

Last reported at 2017-Nov-18 01:00 UTC. Time now 2017-Nov-18 01:12 UTC.
Position N 44°09' E 028°40'.

Length 75 m; draft 4.2 m.

Type: Ship. MMSI: 212028000.

Date/timePositionNaut miles runAvg speedWind from/ knotsBaromVisibWave heightAir tempDewpointWater temp
2017-Nov-18 01:00N 44°09' E 028°40'0 0.0
2017-Nov-18 00:30N 44°09' E 028°40'0 0.0
2017-Nov-18 00:00N 44°09' E 028°40'0 0.0
2017-Nov-17 23:30N 44°09' E 028°40'0 0.0
2017-Nov-17 23:00N 44°09' E 028°40'0 0.0
2017-Nov-17 22:30N 44°09' E 028°40'0 0.0
2017-Nov-17 22:00N 44°09' E 028°40'0 0.0
2017-Nov-17 21:30N 44°09' E 028°40'0 0.0
2017-Nov-17 21:00N 44°09' E 028°40'0 0.0
2017-Nov-17 20:30N 44°09' E 028°40'0 0.0
2017-Nov-17 20:00N 44°09' E 028°40'0 0.0
2017-Nov-17 19:30N 44°09' E 028°40'0 0.0
2017-Nov-17 19:00N 44°09' E 028°40'0 0.0
2017-Nov-17 18:30N 44°09' E 028°40'0 0.0
2017-Nov-17 18:00N 44°09' E 028°40'0 0.0
2017-Nov-17 17:30N 44°09' E 028°40'0 0.9
2017-Nov-17 17:01N 44°09' E 028°40'1 1.2
2017-Nov-17 16:30N 44°09' E 028°39'0 0.0
2017-Nov-17 16:00N 44°09' E 028°39'2 4.8
2017-Nov-17 15:30N 44°07' E 028°41'1 2.9
2017-Nov-17 15:00N 44°07' E 028°40'1 2.7
2017-Nov-17 14:30N 44°07' E 028°41'2 4.6
2017-Nov-17 14:00N 44°09' E 028°39'0 0.0
2017-Nov-17 13:30N 44°09' E 028°39'0 0.0
2017-Nov-17 13:00N 44°09' E 028°39'0 0.0
2017-Nov-17 12:30N 44°09' E 028°40'0 0.0
2017-Nov-17 12:00N 44°09' E 028°40'0 0.0
2017-Nov-17 11:30N 44°09' E 028°40'0 0.0
2017-Nov-17 11:00N 44°09' E 028°40'0 0.0
2017-Nov-17 10:30N 44°09' E 028°40'0 0.0
2017-Nov-17 10:00N 44°09' E 028°40'0 0.0
2017-Nov-17 09:30N 44°09' E 028°40'2 4.1
2017-Nov-17 09:00N 44°07' E 028°40'1 1.1
2017-Nov-17 08:30N 44°07' E 028°39'2 3.1
2017-Nov-17 08:00N 44°09' E 028°40'0 0.5
2017-Nov-17 07:30N 44°09' E 028°40'0 0.0
2017-Nov-17 07:00N 44°09' E 028°40'0 0.0
2017-Nov-17 06:30N 44°09' E 028°40'0 0.0
2017-Nov-17 06:00N 44°09' E 028°40'0 0.0
2017-Nov-17 05:30N 44°09' E 028°40'0 0.0
2017-Nov-17 05:00N 44°09' E 028°40'0 0.0
2017-Nov-17 04:30N 44°09' E 028°40'0 0.2
2017-Nov-17 04:00N 44°09' E 028°40'0 0.0
2017-Nov-17 03:30N 44°09' E 028°40'0 0.0
2017-Nov-17 03:00N 44°09' E 028°40'0 0.0
2017-Nov-17 02:30N 44°09' E 028°40'0 0.0
2017-Nov-17 02:00N 44°09' E 028°40'0 0.0
2017-Nov-17 01:30N 44°09' E 028°40'0 0.0
2017-Nov-17 01:00N 44°09' E 028°40'0 0.0
2017-Nov-17 00:30N 44°09' E 028°40'0 0.0
2017-Nov-17 00:00N 44°09' E 028°40'0 0.0
2017-Nov-16 23:30N 44°09' E 028°40'0 0.0
2017-Nov-16 23:00N 44°09' E 028°40'0 0.0
2017-Nov-16 22:30N 44°09' E 028°40'0 0.0
2017-Nov-16 22:00N 44°09' E 028°40'0 0.0
2017-Nov-16 21:30N 44°09' E 028°40'0 0.0
2017-Nov-16 21:00N 44°09' E 028°40'0 0.0
2017-Nov-16 20:30N 44°09' E 028°40'0 0.0
2017-Nov-16 20:00N 44°09' E 028°40'0 0.0
2017-Nov-16 19:30N 44°09' E 028°40'0 0.0
2017-Nov-16 19:00N 44°09' E 028°40'0 0.0
2017-Nov-16 18:30N 44°09' E 028°40'0 0.0
2017-Nov-16 18:00N 44°09' E 028°40'0 0.0
2017-Nov-16 17:30N 44°09' E 028°40'0 0.3
2017-Nov-16 17:00N 44°09' E 028°40'2 4.6
2017-Nov-16 16:30N 44°06' E 028°40'1 2.2
2017-Nov-16 16:00N 44°07' E 028°40'1 2.8
2017-Nov-16 15:31N 44°06' E 028°41'3 0.1
2017-Nov-15 06:55N 44°09' E 028°40'0 0.0
2017-Nov-15 06:30N 44°09' E 028°40'0 0.0
2017-Nov-15 06:00N 44°09' E 028°40'0 0.0
2017-Nov-15 05:30N 44°09' E 028°40'0 0.0
2017-Nov-15 05:00N 44°09' E 028°40'0 0.0
2017-Nov-15 04:30N 44°09' E 028°40'0 0.0
2017-Nov-15 04:00N 44°09' E 028°40'0 0.0
2017-Nov-15 03:30N 44°09' E 028°40'0 0.0
2017-Nov-15 03:00N 44°09' E 028°40'0 0.0
2017-Nov-15 02:30N 44°09' E 028°40'0 0.0
2017-Nov-15 02:00N 44°09' E 028°40'0 0.0
2017-Nov-15 01:30N 44°09' E 028°40'0 0.0
2017-Nov-15 01:00N 44°09' E 028°40'0 0.0
2017-Nov-15 00:30N 44°09' E 028°40'0 0.0
2017-Nov-15 00:00N 44°09' E 028°40'0 0.0
2017-Nov-14 23:30N 44°09' E 028°40'0 0.0
2017-Nov-14 23:00N 44°09' E 028°40'0 0.0
2017-Nov-14 22:30N 44°09' E 028°40'0 0.0
2017-Nov-14 22:00N 44°09' E 028°40'0 0.0
2017-Nov-14 21:30N 44°09' E 028°40'0 0.0
2017-Nov-14 21:00N 44°09' E 028°40'0 0.0
2017-Nov-14 20:30N 44°09' E 028°40'0 0.0
2017-Nov-14 20:00N 44°09' E 028°40'0 0.0
2017-Nov-14 19:30N 44°09' E 028°40'0 0.0
2017-Nov-14 19:00N 44°09' E 028°40'0 0.0
2017-Nov-14 18:30N 44°09' E 028°40'0 0.0
2017-Nov-14 18:00N 44°09' E 028°40'0 0.0
2017-Nov-14 17:30N 44°09' E 028°40'0 0.0
2017-Nov-14 17:00N 44°09' E 028°40'0 0.1
2017-Nov-14 16:30N 44°09' E 028°40'3 6.1
2017-Nov-14 16:00N 44°06' E 028°41'2 3.7
2017-Nov-14 15:30N 44°06' E 028°39'0 0.0
2017-Nov-14 15:00N 44°06' E 028°39'0 0.0
2017-Nov-14 14:30N 44°06' E 028°39'0 0.0
2017-Nov-14 14:00N 44°06' E 028°39'2 3.3
2017-Nov-14 13:30N 44°07' E 028°39'0 0.3
2017-Nov-14 13:00N 44°07' E 028°40'1 2.5
2017-Nov-14 12:30N 44°06' E 028°39'0 0.2
2017-Nov-14 12:00N 44°06' E 028°39'0 0.0
2017-Nov-14 11:30N 44°06' E 028°39'0 0.0
2017-Nov-14 11:00N 44°06' E 028°39'0 0.0
2017-Nov-14 10:30N 44°06' E 028°39'0 0.0
2017-Nov-14 10:00N 44°06' E 028°39'0 0.0
2017-Nov-14 09:30N 44°06' E 028°39'0 0.0
2017-Nov-14 09:00N 44°06' E 028°39'0 0.0
2017-Nov-14 08:30N 44°06' E 028°39'0 0.0
2017-Nov-14 08:00N 44°06' E 028°39'0 0.0
2017-Nov-14 07:30N 44°06' E 028°39'0 0.0
2017-Nov-14 07:00N 44°06' E 028°39'0 0.0
2017-Nov-14 06:30N 44°06' E 028°39'0 0.2
2017-Nov-14 06:00N 44°06' E 028°39'0 0.0
2017-Nov-14 05:30N 44°06' E 028°39'0 0.0
2017-Nov-14 05:00N 44°06' E 028°39'0 0.0
2017-Nov-14 04:30N 44°06' E 028°39'0 0.0
2017-Nov-14 04:00N 44°06' E 028°39'0 0.0
2017-Nov-14 03:30N 44°06' E 028°39'0 0.0
2017-Nov-14 03:00N 44°06' E 028°39'0 0.0
2017-Nov-14 02:30N 44°06' E 028°39'0 0.0
2017-Nov-14 02:00N 44°06' E 028°39'0 0.0
2017-Nov-14 01:30N 44°06' E 028°39'0 0.0
2017-Nov-14 01:00N 44°06' E 028°39'0 0.0
2017-Nov-14 00:30N 44°06' E 028°39'0 0.0
2017-Nov-14 00:00N 44°06' E 028°39'0 0.0
2017-Nov-13 23:30N 44°06' E 028°39'0 0.0
2017-Nov-13 23:00N 44°06' E 028°39'0 0.0
2017-Nov-13 22:30N 44°06' E 028°39'0 0.0
2017-Nov-13 22:00N 44°06' E 028°39'1 0.0
2017-Nov-13 02:00N 44°06' E 028°39'0 0.0
2017-Nov-13 01:30N 44°06' E 028°39'0 0.0
2017-Nov-13 01:00N 44°06' E 028°39'0 0.0
2017-Nov-13 00:30N 44°06' E 028°39'0 0.0
2017-Nov-13 00:00N 44°06' E 028°39'0 0.0
2017-Nov-12 23:30N 44°06' E 028°39'0 0.0
2017-Nov-12 23:00N 44°06' E 028°39'0 0.0
2017-Nov-12 22:30N 44°06' E 028°39'0 0.0
2017-Nov-12 22:00N 44°06' E 028°39'0 0.0
2017-Nov-12 21:30N 44°06' E 028°39'0 0.0
2017-Nov-12 21:00N 44°06' E 028°39'0 0.0
2017-Nov-12 20:30N 44°06' E 028°39'0 0.0
2017-Nov-12 20:00N 44°06' E 028°39'0 0.0
2017-Nov-12 19:30N 44°06' E 028°39'0 0.0
2017-Nov-12 19:00N 44°06' E 028°39'0 0.0
2017-Nov-12 18:30N 44°06' E 028°39'0 0.0
2017-Nov-12 18:00N 44°06' E 028°39'0 0.0
2017-Nov-12 17:30N 44°06' E 028°39'0 0.0
2017-Nov-12 17:00N 44°06' E 028°39'0 0.0
2017-Nov-12 16:30N 44°06' E 028°39'0 0.0
2017-Nov-12 16:00N 44°06' E 028°39'0 1.0
2017-Nov-12 15:30N 44°06' E 028°39'0 0.0
2017-Nov-12 15:00N 44°06' E 028°39'0 0.0
2017-Nov-12 14:30N 44°06' E 028°39'0 0.0
2017-Nov-12 14:00N 44°06' E 028°39'0 0.0
2017-Nov-12 13:30N 44°06' E 028°39'0 0.0
2017-Nov-12 13:00N 44°06' E 028°39'0 0.0
2017-Nov-12 12:30N 44°06' E 028°39'0 0.0
2017-Nov-12 12:00N 44°06' E 028°39'0 0.0
2017-Nov-12 11:30N 44°06' E 028°39'0 0.0
2017-Nov-12 11:00N 44°06' E 028°39'0 0.0
2017-Nov-12 10:30N 44°06' E 028°39'0 0.0
2017-Nov-12 10:00N 44°06' E 028°39'0 0.0
2017-Nov-12 09:30N 44°06' E 028°39'0 0.0
2017-Nov-12 09:00N 44°06' E 028°39'0 0.0
2017-Nov-12 08:30N 44°06' E 028°39'0 0.0
2017-Nov-12 08:00N 44°06' E 028°39'0 0.0
2017-Nov-12 07:30N 44°06' E 028°39'0 0.1
2017-Nov-12 07:00N 44°06' E 028°39'0 0.0
2017-Nov-12 06:30N 44°06' E 028°39'0 0.1
2017-Nov-12 06:00N 44°06' E 028°39'0 0.0
2017-Nov-12 05:30N 44°06' E 028°39'0 0.0
2017-Nov-12 05:00N 44°06' E 028°39'0 0.0
2017-Nov-12 04:30N 44°06' E 028°39'0 1.0
2017-Nov-12 04:00N 44°06' E 028°39'0 0.0
2017-Nov-12 03:30N 44°06' E 028°39'0 0.0
2017-Nov-12 03:00N 44°06' E 028°39'0 0.0
2017-Nov-12 02:30N 44°06' E 028°39'0 0.0
2017-Nov-12 02:00N 44°06' E 028°39'0 0.0
2017-Nov-12 01:30N 44°06' E 028°39'0 0.0
2017-Nov-12 01:00N 44°06' E 028°39'0 0.0
2017-Nov-12 00:30N 44°06' E 028°39'0 0.0
2017-Nov-12 00:00N 44°06' E 028°39'0 0.0
2017-Nov-11 23:30N 44°06' E 028°39'0 0.0
2017-Nov-11 23:00N 44°06' E 028°39'0 0.0
2017-Nov-11 22:30N 44°06' E 028°39'0 0.0
2017-Nov-11 22:00N 44°06' E 028°39'0 0.0
2017-Nov-11 21:30N 44°06' E 028°39'0 0.0
2017-Nov-11 21:00N 44°06' E 028°39'0 0.0
2017-Nov-11 20:30N 44°06' E 028°39'0 0.0
2017-Nov-11 20:00N 44°06' E 028°39'0 0.0
2017-Nov-11 19:30N 44°06' E 028°39'0 0.0
2017-Nov-11 19:00N 44°06' E 028°39'0 0.0
2017-Nov-11 18:30N 44°06' E 028°39'0 0.0
2017-Nov-11 18:00N 44°06' E 028°39'0 0.0
2017-Nov-11 17:30N 44°06' E 028°39'2 3.7
2017-Nov-11 17:00N 44°07' E 028°40'1 1.4
2017-Nov-11 16:30N 44°07' E 028°39'1 1.9
2017-Nov-11 16:00N 44°06' E 028°39'0 0.0
2017-Nov-11 15:30N 44°06' E 028°39'0 0.5
2017-Nov-11 15:00N 44°06' E 028°39'0 0.0
2017-Nov-11 14:30N 44°06' E 028°39'0 0.0
2017-Nov-11 14:00N 44°06' E 028°39'0 0.0
2017-Nov-11 13:30N 44°06' E 028°39'0 0.0
2017-Nov-11 13:00N 44°06' E 028°39'0 0.0
2017-Nov-11 12:30N 44°06' E 028°39'0 0.0
2017-Nov-11 12:00N 44°06' E 028°39'0 0.0
2017-Nov-11 11:30N 44°06' E 028°39'0 0.0
2017-Nov-11 11:00N 44°06' E 028°39'0 0.4
2017-Nov-11 10:31N 44°06' E 028°39'0 0.2
2017-Nov-11 10:00N 44°06' E 028°39'0 0.0
2017-Nov-11 09:30N 44°06' E 028°39'0 0.0
2017-Nov-11 09:00N 44°06' E 028°39'0 0.0
2017-Nov-11 08:30N 44°06' E 028°39'0 0.5
2017-Nov-11 08:00N 44°06' E 028°39'0 0.0
2017-Nov-11 07:30N 44°06' E 028°39'0 0.0
2017-Nov-11 07:00N 44°06' E 028°39'0 0.0
2017-Nov-11 06:30N 44°06' E 028°39'0 0.0
2017-Nov-11 06:00N 44°06' E 028°39'0 0.0
2017-Nov-11 05:30N 44°06' E 028°39'0 0.0
2017-Nov-11 05:00N 44°06' E 028°39'0 0.0
2017-Nov-11 04:30N 44°06' E 028°39'0 0.0
2017-Nov-11 04:00N 44°06' E 028°39'0 0.0
2017-Nov-11 03:30N 44°06' E 028°39'0 0.0
2017-Nov-11 03:00N 44°06' E 028°39'0 0.0
2017-Nov-11 02:30N 44°06' E 028°39'0 0.0
2017-Nov-11 02:00N 44°06' E 028°39'0 0.0
2017-Nov-11 01:30N 44°06' E 028°39'0 0.0
2017-Nov-11 01:00N 44°06' E 028°39'0 0.0
2017-Nov-11 00:30N 44°06' E 028°39'0 0.0
2017-Nov-11 00:00N 44°06' E 028°39'0 0.0
2017-Nov-10 23:30N 44°06' E 028°39'0 0.0
2017-Nov-10 23:00N 44°06' E 028°39'0 0.0
2017-Nov-10 22:30N 44°06' E 028°39'0 0.0
2017-Nov-10 22:00N 44°06' E 028°39'0 0.0
2017-Nov-10 21:30N 44°06' E 028°39'0 0.0
2017-Nov-10 21:00N 44°06' E 028°39'0 0.0
2017-Nov-10 20:30N 44°06' E 028°39'0 0.0
2017-Nov-10 20:00N 44°06' E 028°39'0 0.0
2017-Nov-10 19:30N 44°06' E 028°39'0 0.0
2017-Nov-10 19:00N 44°06' E 028°39'0 0.0
2017-Nov-10 18:30N 44°06' E 028°39'0 0.0
2017-Nov-10 18:00N 44°06' E 028°39'0 0.0
2017-Nov-10 17:30N 44°06' E 028°39'0 0.5
2017-Nov-10 17:00N 44°06' E 028°39'0 0.3
2017-Nov-10 16:30N 44°06' E 028°39'0 0.0
2017-Nov-10 16:00N 44°06' E 028°39'0 0.0
2017-Nov-10 15:30N 44°06' E 028°39'0 0.0
2017-Nov-10 15:00N 44°06' E 028°39'0 0.0
2017-Nov-10 14:30N 44°06' E 028°39'0 0.0
2017-Nov-10 14:00N 44°06' E 028°39'0 0.0
2017-Nov-10 13:30N 44°06' E 028°39'0 0.6
2017-Nov-10 13:00N 44°06' E 028°39'0 0.0
2017-Nov-10 12:30N 44°06' E 028°39'0 0.0
2017-Nov-10 12:00N 44°06' E 028°39'0 0.0
2017-Nov-10 11:30N 44°06' E 028°39'0 0.0
2017-Nov-10 11:00N 44°06' E 028°39'0 0.0
2017-Nov-10 10:30N 44°06' E 028°39'0 0.0
2017-Nov-10 10:00N 44°06' E 028°39'0 0.8
2017-Nov-10 09:30N 44°06' E 028°39'0 0.4
2017-Nov-10 09:00N 44°06' E 028°39'0 0.8
2017-Nov-10 08:30N 44°06' E 028°39'0 0.0
2017-Nov-10 08:00N 44°06' E 028°39'0 0.0
2017-Nov-10 07:30N 44°06' E 028°39'0 0.0
2017-Nov-10 07:00N 44°06' E 028°39'0 0.0
2017-Nov-10 06:30N 44°06' E 028°39'0 0.0
2017-Nov-10 06:00N 44°06' E 028°39'2 4.5
2017-Nov-10 05:30N 44°06' E 028°42'3 5.1
2017-Nov-10 05:00N 44°05' E 028°44'5 9.0
2017-Nov-10 04:30N 44°01' E 028°48'5 9.1
2017-Nov-10 04:00N 43°58' E 028°52'5 9.1
2017-Nov-10 03:30N 43°54' E 028°55'4 8.7
2017-Nov-10 03:00N 43°50' E 028°58'5 9.0
2017-Nov-10 02:30N 43°46' E 029°01'4 8.7
2017-Nov-10 02:00N 43°42' E 029°04'13 6.7
2017-Nov-10 00:00N 43°33' E 028°50'7 0.3
2017-Nov-09 00:46N 43°34' E 028°40'3 9.0
2017-Nov-09 00:29N 43°36' E 028°41'4 9.2
2017-Nov-09 00:00N 43°40' E 028°44'5 9.0
2017-Nov-08 23:30N 43°44' E 028°47'5 9.1
2017-Nov-08 23:00N 43°47' E 028°51'4 8.9
2017-Nov-08 22:30N 43°51' E 028°54'4 7.4
2017-Nov-08 22:00N 43°55' E 028°53'4 8.5
2017-Nov-08 21:30N 43°58' E 028°49'4 8.6
2017-Nov-08 21:00N 44°01' E 028°45'4 8.5
2017-Nov-08 20:30N 44°05' E 028°42'2 4.6
2017-Nov-08 20:00N 44°06' E 028°40'1 2.6
2017-Nov-08 19:30N 44°06' E 028°39'0 0.0
2017-Nov-08 19:00N 44°06' E 028°39'0 0.0
2017-Nov-08 18:30N 44°06' E 028°39'0 0.0
2017-Nov-08 18:00N 44°06' E 028°39'0 0.0
2017-Nov-08 17:30N 44°06' E 028°39'0 0.0
2017-Nov-08 17:00N 44°06' E 028°39'0 0.0
2017-Nov-08 16:30N 44°06' E 028°39'0 0.0
2017-Nov-08 16:00N 44°06' E 028°39'0 0.0
2017-Nov-08 15:30N 44°06' E 028°39'0 0.0
2017-Nov-08 15:00N 44°06' E 028°39'0 0.0
2017-Nov-08 14:30N 44°06' E 028°39'1 1.6
2017-Nov-08 14:00N 44°06' E 028°39'0 0.9
2017-Nov-08 13:30N 44°07' E 028°39'1 1.8
2017-Nov-08 13:00N 44°06' E 028°39'0 0.0
2017-Nov-08 12:30N 44°06' E 028°39'0 0.0
2017-Nov-08 12:00N 44°06' E 028°39'0 0.0
2017-Nov-08 11:30N 44°06' E 028°39'0 0.0
2017-Nov-08 11:00N 44°06' E 028°39'0 0.3
2017-Nov-08 10:30N 44°06' E 028°39'0 0.0
2017-Nov-08 10:00N 44°06' E 028°39'0 0.0
2017-Nov-08 09:30N 44°06' E 028°39'0 0.0
2017-Nov-08 09:00N 44°06' E 028°39'0 0.0
2017-Nov-08 08:30N 44°06' E 028°39'0 0.0
2017-Nov-08 08:00N 44°06' E 028°39'0 0.0
2017-Nov-08 07:30N 44°06' E 028°39'0 0.0
2017-Nov-08 07:00N 44°06' E 028°39'0 0.0
2017-Nov-08 06:30N 44°06' E 028°39'0 0.0
2017-Nov-08 06:00N 44°06' E 028°39'0 0.0
2017-Nov-08 05:30N 44°06' E 028°39'0 0.0
2017-Nov-08 05:00N 44°06' E 028°39'0 0.0
2017-Nov-08 04:30N 44°06' E 028°39'0 0.5
2017-Nov-08 04:00N 44°06' E 028°39'0 0.0
2017-Nov-08 03:30N 44°06' E 028°39'0 0.0
2017-Nov-08 03:00N 44°06' E 028°39'0 0.0
2017-Nov-08 02:30N 44°06' E 028°39'0 0.0
2017-Nov-08 02:00N 44°06' E 028°39'0 0.0
2017-Nov-08 01:30N 44°06' E 028°39'0 0.0
2017-Nov-08 01:00N 44°06' E 028°39'  
Track history (hours):
 
Tides and Currents Weather Stations Pressure Air Temp Water Temp Dewpoint Dewpoint Depression Visibility Wind Speed Wind Dir Waves Ship Positions

Angelo B

Last reported at 2017-Nov-18 01:00 UTC. Time now 2017-Nov-18 01:12 UTC.
Position N 44°09' E 028°40'.

Length 75 m; draft 4.2 m.

Type: Ship. MMSI: 212028000.

Date/timePositionNaut miles runAvg speedWind from/ knotsBaromVisibWave heightAir tempDewpointWater temp
2017-Nov-18 01:00N 44°09' E 028°40'0 0.0
2017-Nov-18 00:30N 44°09' E 028°40'0 0.0
2017-Nov-18 00:00N 44°09' E 028°40'0 0.0
2017-Nov-17 23:30N 44°09' E 028°40'0 0.0
2017-Nov-17 23:00N 44°09' E 028°40'0 0.0
2017-Nov-17 22:30N 44°09' E 028°40'0 0.0
2017-Nov-17 22:00N 44°09' E 028°40'0 0.0
2017-Nov-17 21:30N 44°09' E 028°40'0 0.0
2017-Nov-17 21:00N 44°09' E 028°40'0 0.0
2017-Nov-17 20:30N 44°09' E 028°40'0 0.0
2017-Nov-17 20:00N 44°09' E 028°40'0 0.0
2017-Nov-17 19:30N 44°09' E 028°40'0 0.0
2017-Nov-17 19:00N 44°09' E 028°40'0 0.0
2017-Nov-17 18:30N 44°09' E 028°40'0 0.0
2017-Nov-17 18:00N 44°09' E 028°40'0 0.0
2017-Nov-17 17:30N 44°09' E 028°40'0 0.9
2017-Nov-17 17:01N 44°09' E 028°40'1 1.2
2017-Nov-17 16:30N 44°09' E 028°39'0 0.0
2017-Nov-17 16:00N 44°09' E 028°39'2 4.8
2017-Nov-17 15:30N 44°07' E 028°41'1 2.9
2017-Nov-17 15:00N 44°07' E 028°40'1 2.7
2017-Nov-17 14:30N 44°07' E 028°41'2 4.6
2017-Nov-17 14:00N 44°09' E 028°39'0 0.0
2017-Nov-17 13:30N 44°09' E 028°39'0 0.0
2017-Nov-17 13:00N 44°09' E 028°39'0 0.0
2017-Nov-17 12:30N 44°09' E 028°40'0 0.0
2017-Nov-17 12:00N 44°09' E 028°40'0 0.0
2017-Nov-17 11:30N 44°09' E 028°40'0 0.0
2017-Nov-17 11:00N 44°09' E 028°40'0 0.0
2017-Nov-17 10:30N 44°09' E 028°40'0 0.0
2017-Nov-17 10:00N 44°09' E 028°40'0 0.0
2017-Nov-17 09:30N 44°09' E 028°40'2 4.1
2017-Nov-17 09:00N 44°07' E 028°40'1 1.1
2017-Nov-17 08:30N 44°07' E 028°39'2 3.1
2017-Nov-17 08:00N 44°09' E 028°40'0 0.5
2017-Nov-17 07:30N 44°09' E 028°40'0 0.0
2017-Nov-17 07:00N 44°09' E 028°40'0 0.0
2017-Nov-17 06:30N 44°09' E 028°40'0 0.0
2017-Nov-17 06:00N 44°09' E 028°40'0 0.0
2017-Nov-17 05:30N 44°09' E 028°40'0 0.0
2017-Nov-17 05:00N 44°09' E 028°40'0 0.0
2017-Nov-17 04:30N 44°09' E 028°40'0 0.2
2017-Nov-17 04:00N 44°09' E 028°40'0 0.0
2017-Nov-17 03:30N 44°09' E 028°40'0 0.0
2017-Nov-17 03:00N 44°09' E 028°40'0 0.0
2017-Nov-17 02:30N 44°09' E 028°40'0 0.0
2017-Nov-17 02:00N 44°09' E 028°40'0 0.0
2017-Nov-17 01:30N 44°09' E 028°40'0 0.0
2017-Nov-17 01:00N 44°09' E 028°40'0 0.0
2017-Nov-17 00:30N 44°09' E 028°40'0 0.0
2017-Nov-17 00:00N 44°09' E 028°40'0 0.0
2017-Nov-16 23:30N 44°09' E 028°40'0 0.0
2017-Nov-16 23:00N 44°09' E 028°40'0 0.0
2017-Nov-16 22:30N 44°09' E 028°40'0 0.0
2017-Nov-16 22:00N 44°09' E 028°40'0 0.0
2017-Nov-16 21:30N 44°09' E 028°40'0 0.0
2017-Nov-16 21:00N 44°09' E 028°40'0 0.0
2017-Nov-16 20:30N 44°09' E 028°40'0 0.0
2017-Nov-16 20:00N 44°09' E 028°40'0 0.0
2017-Nov-16 19:30N 44°09' E 028°40'0 0.0
2017-Nov-16 19:00N 44°09' E 028°40'0 0.0
2017-Nov-16 18:30N 44°09' E 028°40'0 0.0
2017-Nov-16 18:00N 44°09' E 028°40'0 0.0
2017-Nov-16 17:30N 44°09' E 028°40'0 0.3
2017-Nov-16 17:00N 44°09' E 028°40'2 4.6
2017-Nov-16 16:30N 44°06' E 028°40'1 2.2
2017-Nov-16 16:00N 44°07' E 028°40'1 2.8
2017-Nov-16 15:31N 44°06' E 028°41'3 0.1
2017-Nov-15 06:55N 44°09' E 028°40'0 0.0
2017-Nov-15 06:30N 44°09' E 028°40'0 0.0
2017-Nov-15 06:00N 44°09' E 028°40'0 0.0
2017-Nov-15 05:30N 44°09' E 028°40'0 0.0
2017-Nov-15 05:00N 44°09' E 028°40'0 0.0
2017-Nov-15 04:30N 44°09' E 028°40'0 0.0
2017-Nov-15 04:00N 44°09' E 028°40'0 0.0
2017-Nov-15 03:30N 44°09' E 028°40'0 0.0
2017-Nov-15 03:00N 44°09' E 028°40'0 0.0
2017-Nov-15 02:30N 44°09' E 028°40'0 0.0
2017-Nov-15 02:00N 44°09' E 028°40'0 0.0
2017-Nov-15 01:30N 44°09' E 028°40'0 0.0
2017-Nov-15 01:00N 44°09' E 028°40'0 0.0
2017-Nov-15 00:30N 44°09' E 028°40'0 0.0
2017-Nov-15 00:00N 44°09' E 028°40'0 0.0
2017-Nov-14 23:30N 44°09' E 028°40'0 0.0
2017-Nov-14 23:00N 44°09' E 028°40'0 0.0
2017-Nov-14 22:30N 44°09' E 028°40'0 0.0
2017-Nov-14 22:00N 44°09' E 028°40'0 0.0
2017-Nov-14 21:30N 44°09' E 028°40'0 0.0
2017-Nov-14 21:00N 44°09' E 028°40'0 0.0
2017-Nov-14 20:30N 44°09' E 028°40'0 0.0
2017-Nov-14 20:00N 44°09' E 028°40'0 0.0
2017-Nov-14 19:30N 44°09' E 028°40'0 0.0
2017-Nov-14 19:00N 44°09' E 028°40'0 0.0
2017-Nov-14 18:30N 44°09' E 028°40'0 0.0
2017-Nov-14 18:00N 44°09' E 028°40'0 0.0
2017-Nov-14 17:30N 44°09' E 028°40'0 0.0
2017-Nov-14 17:00N 44°09' E 028°40'0 0.1
2017-Nov-14 16:30N 44°09' E 028°40'3 6.1
2017-Nov-14 16:00N 44°06' E 028°41'2 3.7
2017-Nov-14 15:30N 44°06' E 028°39'0 0.0
2017-Nov-14 15:00N 44°06' E 028°39'0 0.0
2017-Nov-14 14:30N 44°06' E 028°39'0 0.0
2017-Nov-14 14:00N 44°06' E 028°39'2 3.3
2017-Nov-14 13:30N 44°07' E 028°39'0 0.3
2017-Nov-14 13:00N 44°07' E 028°40'1 2.5
2017-Nov-14 12:30N 44°06' E 028°39'0 0.2
2017-Nov-14 12:00N 44°06' E 028°39'0 0.0
2017-Nov-14 11:30N 44°06' E 028°39'0 0.0
2017-Nov-14 11:00N 44°06' E 028°39'0 0.0
2017-Nov-14 10:30N 44°06' E 028°39'0 0.0
2017-Nov-14 10:00N 44°06' E 028°39'0 0.0
2017-Nov-14 09:30N 44°06' E 028°39'0 0.0
2017-Nov-14 09:00N 44°06' E 028°39'0 0.0
2017-Nov-14 08:30N 44°06' E 028°39'0 0.0
2017-Nov-14 08:00N 44°06' E 028°39'0 0.0
2017-Nov-14 07:30N 44°06' E 028°39'0 0.0
2017-Nov-14 07:00N 44°06' E 028°39'0 0.0
2017-Nov-14 06:30N 44°06' E 028°39'0 0.2
2017-Nov-14 06:00N 44°06' E 028°39'0 0.0
2017-Nov-14 05:30N 44°06' E 028°39'0 0.0
2017-Nov-14 05:00N 44°06' E 028°39'0 0.0
2017-Nov-14 04:30N 44°06' E 028°39'0 0.0
2017-Nov-14 04:00N 44°06' E 028°39'0 0.0
2017-Nov-14 03:30N 44°06' E 028°39'0 0.0
2017-Nov-14 03:00N 44°06' E 028°39'0 0.0
2017-Nov-14 02:30N 44°06' E 028°39'0 0.0
2017-Nov-14 02:00N 44°06' E 028°39'0 0.0
2017-Nov-14 01:30N 44°06' E 028°39'0 0.0
2017-Nov-14 01:00N 44°06' E 028°39'0 0.0
2017-Nov-14 00:30N 44°06' E 028°39'0 0.0
2017-Nov-14 00:00N 44°06' E 028°39'0 0.0
2017-Nov-13 23:30N 44°06' E 028°39'0 0.0
2017-Nov-13 23:00N 44°06' E 028°39'0 0.0
2017-Nov-13 22:30N 44°06' E 028°39'0 0.0
2017-Nov-13 22:00N 44°06' E 028°39'1 0.0
2017-Nov-13 02:00N 44°06' E 028°39'0 0.0
2017-Nov-13 01:30N 44°06' E 028°39'0 0.0
2017-Nov-13 01:00N 44°06' E 028°39'0 0.0
2017-Nov-13 00:30N 44°06' E 028°39'0 0.0
2017-Nov-13 00:00N 44°06' E 028°39'0 0.0
2017-Nov-12 23:30N 44°06' E 028°39'0 0.0
2017-Nov-12 23:00N 44°06' E 028°39'0 0.0
2017-Nov-12 22:30N 44°06' E 028°39'0 0.0
2017-Nov-12 22:00N 44°06' E 028°39'0 0.0
2017-Nov-12 21:30N 44°06' E 028°39'0 0.0
2017-Nov-12 21:00N 44°06' E 028°39'0 0.0
2017-Nov-12 20:30N 44°06' E 028°39'0 0.0
2017-Nov-12 20:00N 44°06' E 028°39'0 0.0
2017-Nov-12 19:30N 44°06' E 028°39'0 0.0
2017-Nov-12 19:00N 44°06' E 028°39'0 0.0
2017-Nov-12 18:30N 44°06' E 028°39'0 0.0
2017-Nov-12 18:00N 44°06' E 028°39'0 0.0
2017-Nov-12 17:30N 44°06' E 028°39'0 0.0
2017-Nov-12 17:00N 44°06' E 028°39'0 0.0
2017-Nov-12 16:30N 44°06' E 028°39'0 0.0
2017-Nov-12 16:00N 44°06' E 028°39'0 1.0
2017-Nov-12 15:30N 44°06' E 028°39'0 0.0
2017-Nov-12 15:00N 44°06' E 028°39'0 0.0
2017-Nov-12 14:30N 44°06' E 028°39'0 0.0
2017-Nov-12 14:00N 44°06' E 028°39'0 0.0
2017-Nov-12 13:30N 44°06' E 028°39'0 0.0
2017-Nov-12 13:00N 44°06' E 028°39'0 0.0
2017-Nov-12 12:30N 44°06' E 028°39'0 0.0
2017-Nov-12 12:00N 44°06' E 028°39'0 0.0
2017-Nov-12 11:30N 44°06' E 028°39'0 0.0
2017-Nov-12 11:00N 44°06' E 028°39'0 0.0
2017-Nov-12 10:30N 44°06' E 028°39'0 0.0
2017-Nov-12 10:00N 44°06' E 028°39'0 0.0
2017-Nov-12 09:30N 44°06' E 028°39'0 0.0
2017-Nov-12 09:00N 44°06' E 028°39'0 0.0
2017-Nov-12 08:30N 44°06' E 028°39'0 0.0
2017-Nov-12 08:00N 44°06' E 028°39'0 0.0
2017-Nov-12 07:30N 44°06' E 028°39'0 0.1
2017-Nov-12 07:00N 44°06' E 028°39'0 0.0
2017-Nov-12 06:30N 44°06' E 028°39'0 0.1
2017-Nov-12 06:00N 44°06' E 028°39'0 0.0
2017-Nov-12 05:30N 44°06' E 028°39'0 0.0
2017-Nov-12 05:00N 44°06' E 028°39'0 0.0
2017-Nov-12 04:30N 44°06' E 028°39'0 1.0
2017-Nov-12 04:00N 44°06' E 028°39'0 0.0
2017-Nov-12 03:30N 44°06' E 028°39'0 0.0
2017-Nov-12 03:00N 44°06' E 028°39'0 0.0
2017-Nov-12 02:30N 44°06' E 028°39'0 0.0
2017-Nov-12 02:00N 44°06' E 028°39'0 0.0
2017-Nov-12 01:30N 44°06' E 028°39'0 0.0
2017-Nov-12 01:00N 44°06' E 028°39'0 0.0
2017-Nov-12 00:30N 44°06' E 028°39'0 0.0
2017-Nov-12 00:00N 44°06' E 028°39'0 0.0
2017-Nov-11 23:30N 44°06' E 028°39'0 0.0
2017-Nov-11 23:00N 44°06' E 028°39'0 0.0
2017-Nov-11 22:30N 44°06' E 028°39'0 0.0
2017-Nov-11 22:00N 44°06' E 028°39'0 0.0
2017-Nov-11 21:30N 44°06' E 028°39'0 0.0
2017-Nov-11 21:00N 44°06' E 028°39'0 0.0
2017-Nov-11 20:30N 44°06' E 028°39'0 0.0
2017-Nov-11 20:00N 44°06' E 028°39'0 0.0
2017-Nov-11 19:30N 44°06' E 028°39'0 0.0
2017-Nov-11 19:00N 44°06' E 028°39'0 0.0
2017-Nov-11 18:30N 44°06' E 028°39'0 0.0
2017-Nov-11 18:00N 44°06' E 028°39'0 0.0
2017-Nov-11 17:30N 44°06' E 028°39'2 3.7
2017-Nov-11 17:00N 44°07' E 028°40'1 1.4
2017-Nov-11 16:30N 44°07' E 028°39'1 1.9
2017-Nov-11 16:00N 44°06' E 028°39'0 0.0
2017-Nov-11 15:30N 44°06' E 028°39'0 0.5
2017-Nov-11 15:00N 44°06' E 028°39'0 0.0
2017-Nov-11 14:30N 44°06' E 028°39'0 0.0
2017-Nov-11 14:00N 44°06' E 028°39'0 0.0
2017-Nov-11 13:30N 44°06' E 028°39'0 0.0
2017-Nov-11 13:00N 44°06' E 028°39'0 0.0
2017-Nov-11 12:30N 44°06' E 028°39'0 0.0
2017-Nov-11 12:00N 44°06' E 028°39'0 0.0
2017-Nov-11 11:30N 44°06' E 028°39'0 0.0
2017-Nov-11 11:00N 44°06' E 028°39'0 0.4
2017-Nov-11 10:31N 44°06' E 028°39'0 0.2
2017-Nov-11 10:00N 44°06' E 028°39'0 0.0
2017-Nov-11 09:30N 44°06' E 028°39'0 0.0
2017-Nov-11 09:00N 44°06' E 028°39'0 0.0
2017-Nov-11 08:30N 44°06' E 028°39'0 0.5
2017-Nov-11 08:00N 44°06' E 028°39'0 0.0
2017-Nov-11 07:30N 44°06' E 028°39'0 0.0
2017-Nov-11 07:00N 44°06' E 028°39'0 0.0
2017-Nov-11 06:30N 44°06' E 028°39'0 0.0
2017-Nov-11 06:00N 44°06' E 028°39'0 0.0
2017-Nov-11 05:30N 44°06' E 028°39'0 0.0
2017-Nov-11 05:00N 44°06' E 028°39'0 0.0
2017-Nov-11 04:30N 44°06' E 028°39'0 0.0
2017-Nov-11 04:00N 44°06' E 028°39'0 0.0
2017-Nov-11 03:30N 44°06' E 028°39'0 0.0
2017-Nov-11 03:00N 44°06' E 028°39'0 0.0
2017-Nov-11 02:30N 44°06' E 028°39'0 0.0
2017-Nov-11 02:00N 44°06' E 028°39'0 0.0
2017-Nov-11 01:30N 44°06' E 028°39'0 0.0
2017-Nov-11 01:00N 44°06' E 028°39'0 0.0
2017-Nov-11 00:30N 44°06' E 028°39'0 0.0
2017-Nov-11 00:00N 44°06' E 028°39'0 0.0
2017-Nov-10 23:30N 44°06' E 028°39'0 0.0
2017-Nov-10 23:00N 44°06' E 028°39'0 0.0
2017-Nov-10 22:30N 44°06' E 028°39'0 0.0
2017-Nov-10 22:00N 44°06' E 028°39'0 0.0
2017-Nov-10 21:30N 44°06' E 028°39'0 0.0
2017-Nov-10 21:00N 44°06' E 028°39'0 0.0
2017-Nov-10 20:30N 44°06' E 028°39'0 0.0
2017-Nov-10 20:00N 44°06' E 028°39'0 0.0
2017-Nov-10 19:30N 44°06' E 028°39'0 0.0
2017-Nov-10 19:00N 44°06' E 028°39'0 0.0
2017-Nov-10 18:30N 44°06' E 028°39'0 0.0
2017-Nov-10 18:00N 44°06' E 028°39'0 0.0
2017-Nov-10 17:30N 44°06' E 028°39'0 0.5
2017-Nov-10 17:00N 44°06' E 028°39'0 0.3
2017-Nov-10 16:30N 44°06' E 028°39'0 0.0
2017-Nov-10 16:00N 44°06' E 028°39'0 0.0
2017-Nov-10 15:30N 44°06' E 028°39'0 0.0
2017-Nov-10 15:00N 44°06' E 028°39'0 0.0
2017-Nov-10 14:30N 44°06' E 028°39'0 0.0
2017-Nov-10 14:00N 44°06' E 028°39'0 0.0
2017-Nov-10 13:30N 44°06' E 028°39'0 0.6
2017-Nov-10 13:00N 44°06' E 028°39'0 0.0
2017-Nov-10 12:30N 44°06' E 028°39'0 0.0
2017-Nov-10 12:00N 44°06' E 028°39'0 0.0
2017-Nov-10 11:30N 44°06' E 028°39'0 0.0
2017-Nov-10 11:00N 44°06' E 028°39'0 0.0
2017-Nov-10 10:30N 44°06' E 028°39'0 0.0
2017-Nov-10 10:00N 44°06' E 028°39'0 0.8
2017-Nov-10 09:30N 44°06' E 028°39'0 0.4
2017-Nov-10 09:00N 44°06' E 028°39'0 0.8
2017-Nov-10 08:30N 44°06' E 028°39'0 0.0
2017-Nov-10 08:00N 44°06' E 028°39'0 0.0
2017-Nov-10 07:30N 44°06' E 028°39'0 0.0
2017-Nov-10 07:00N 44°06' E 028°39'0 0.0
2017-Nov-10 06:30N 44°06' E 028°39'0 0.0
2017-Nov-10 06:00N 44°06' E 028°39'2 4.5
2017-Nov-10 05:30N 44°06' E 028°42'3 5.1
2017-Nov-10 05:00N 44°05' E 028°44'5 9.0
2017-Nov-10 04:30N 44°01' E 028°48'5 9.1
2017-Nov-10 04:00N 43°58' E 028°52'5 9.1
2017-Nov-10 03:30N 43°54' E 028°55'4 8.7
2017-Nov-10 03:00N 43°50' E 028°58'5 9.0
2017-Nov-10 02:30N 43°46' E 029°01'4 8.7
2017-Nov-10 02:00N 43°42' E 029°04'13 6.7
2017-Nov-10 00:00N 43°33' E 028°50'7 0.3
2017-Nov-09 00:46N 43°34' E 028°40'3 9.0
2017-Nov-09 00:29N 43°36' E 028°41'4 9.2
2017-Nov-09 00:00N 43°40' E 028°44'5 9.0
2017-Nov-08 23:30N 43°44' E 028°47'5 9.1
2017-Nov-08 23:00N 43°47' E 028°51'4 8.9
2017-Nov-08 22:30N 43°51' E 028°54'4 7.4
2017-Nov-08 22:00N 43°55' E 028°53'4 8.5
2017-Nov-08 21:30N 43°58' E 028°49'4 8.6
2017-Nov-08 21:00N 44°01' E 028°45'4 8.5
2017-Nov-08 20:30N 44°05' E 028°42'2 4.6
2017-Nov-08 20:00N 44°06' E 028°40'1 2.6
2017-Nov-08 19:30N 44°06' E 028°39'0 0.0
2017-Nov-08 19:00N 44°06' E 028°39'0 0.0
2017-Nov-08 18:30N 44°06' E 028°39'0 0.0
2017-Nov-08 18:00N 44°06' E 028°39'0 0.0
2017-Nov-08 17:30N 44°06' E 028°39'0 0.0
2017-Nov-08 17:00N 44°06' E 028°39'0 0.0
2017-Nov-08 16:30N 44°06' E 028°39'0 0.0
2017-Nov-08 16:00N 44°06' E 028°39'0 0.0
2017-Nov-08 15:30N 44°06' E 028°39'0 0.0
2017-Nov-08 15:00N 44°06' E 028°39'0 0.0
2017-Nov-08 14:30N 44°06' E 028°39'1 1.6
2017-Nov-08 14:00N 44°06' E 028°39'0 0.9
2017-Nov-08 13:30N 44°07' E 028°39'1 1.8
2017-Nov-08 13:00N 44°06' E 028°39'0 0.0
2017-Nov-08 12:30N 44°06' E 028°39'0 0.0
2017-Nov-08 12:00N 44°06' E 028°39'0 0.0
2017-Nov-08 11:30N 44°06' E 028°39'0 0.0
2017-Nov-08 11:00N 44°06' E 028°39'0 0.3
2017-Nov-08 10:30N 44°06' E 028°39'0 0.0
2017-Nov-08 10:00N 44°06' E 028°39'0 0.0
2017-Nov-08 09:30N 44°06' E 028°39'0 0.0
2017-Nov-08 09:00N 44°06' E 028°39'0 0.0
2017-Nov-08 08:30N 44°06' E 028°39'0 0.0
2017-Nov-08 08:00N 44°06' E 028°39'0 0.0
2017-Nov-08 07:30N 44°06' E 028°39'0 0.0
2017-Nov-08 07:00N 44°06' E 028°39'0 0.0
2017-Nov-08 06:30N 44°06' E 028°39'0 0.0
2017-Nov-08 06:00N 44°06' E 028°39'0 0.0
2017-Nov-08 05:30N 44°06' E 028°39'0 0.0
2017-Nov-08 05:00N 44°06' E 028°39'0 0.0
2017-Nov-08 04:30N 44°06' E 028°39'0 0.5
2017-Nov-08 04:00N 44°06' E 028°39'0 0.0
2017-Nov-08 03:30N 44°06' E 028°39'0 0.0
2017-Nov-08 03:00N 44°06' E 028°39'0 0.0
2017-Nov-08 02:30N 44°06' E 028°39'0 0.0
2017-Nov-08 02:00N 44°06' E 028°39'0 0.0
2017-Nov-08 01:30N 44°06' E 028°39'0 0.0
2017-Nov-08 01:00N 44°06' E 028°39'  

Dump ship's entire track history